Terminal Aerodrome Forecast
Issued by NWS

Home | Current Version | Previous Version | Graphics & Text | Print | Product List | Glossary On
Versions: 1 2 3 4 5 6 7 8 9 10 11 12 13 14 15 16 17 18 19
000
FTUS43 KBIS 182333
TAFMOT
TAF
KMOT 182333Z 1900/1924 12007KT P6SM FEW250
     FM190600 13007KT P6SM VCSH BKN150
     FM191000 11010KT P6SM VCSH BKN150 WS020/15040KT
     FM191500 14013KT P6SM -SHRA OVC060=

USA.gov is the U.S. government's official web portal to all federal, state and local government web resources and services.